sensor_id;sensor_type;location;lat;lon;timestamp;P1;durP1;ratioP1;P2;durP2;ratioP2
44276;SDS011;29973;43.742;1.236;2024-02-26T00:01:51;1.10;;;1.10;;
44276;SDS011;29973;43.742;1.236;2024-02-26T00:04:17;1.58;;;1.45;;
44276;SDS011;29973;43.742;1.236;2024-02-26T00:06:43;2.83;;;1.55;;
44276;SDS011;29973;43.742;1.236;2024-02-26T00:09:09;1.00;;;1.00;;
44276;SDS011;29973;43.742;1.236;2024-02-26T00:11:38;0.80;;;0.80;;
44276;SDS011;29973;43.742;1.236;2024-02-26T00:14:04;1.10;;;1.10;;
44276;SDS011;29973;43.742;1.236;2024-02-26T00:16:30;1.00;;;1.00;;
44276;SDS011;29973;43.742;1.236;2024-02-26T00:18:56;0.80;;;0.80;;
44276;SDS011;29973;43.742;1.236;2024-02-26T00:21:21;0.80;;;0.80;;
44276;SDS011;29973;43.742;1.236;2024-02-26T00:23:48;0.80;;;0.80;;
44276;SDS011;29973;43.742;1.236;2024-02-26T00:26:15;0.85;;;0.85;;
44276;SDS011;29973;43.742;1.236;2024-02-26T00:28:41;0.90;;;0.90;;
44276;SDS011;29973;43.742;1.236;2024-02-26T00:31:07;0.90;;;0.90;;
44276;SDS011;29973;43.742;1.236;2024-02-26T00:33:32;0.90;;;0.90;;
44276;SDS011;29973;43.742;1.236;2024-02-26T00:35:58;0.90;;;0.90;;
44276;SDS011;29973;43.742;1.236;2024-02-26T00:38:24;0.90;;;0.90;;
44276;SDS011;29973;43.742;1.236;2024-02-26T00:40:49;0.88;;;0.88;;
44276;SDS011;29973;43.742;1.236;2024-02-26T00:43:15;0.98;;;0.98;;
44276;SDS011;29973;43.742;1.236;2024-02-26T00:45:40;0.90;;;0.90;;
44276;SDS011;29973;43.742;1.236;2024-02-26T00:48:06;0.90;;;0.90;;
44276;SDS011;29973;43.742;1.236;2024-02-26T00:50:32;1.15;;;1.15;;
44276;SDS011;29973;43.742;1.236;2024-02-26T00:52:59;0.98;;;0.98;;
44276;SDS011;29973;43.742;1.236;2024-02-26T00:55:25;1.25;;;1.25;;
44276;SDS011;29973;43.742;1.236;2024-02-26T00:57:50;1.00;;;1.00;;
44276;SDS011;29973;43.742;1.236;2024-02-26T01:00:16;1.00;;;1.00;;
44276;SDS011;29973;43.742;1.236;2024-02-26T01:02:42;0.90;;;0.90;;
44276;SDS011;29973;43.742;1.236;2024-02-26T01:05:08;1.00;;;1.00;;
44276;SDS011;29973;43.742;1.236;2024-02-26T01:07:37;1.10;;;1.10;;
44276;SDS011;29973;43.742;1.236;2024-02-26T01:10:03;1.40;;;1.40;;
44276;SDS011;29973;43.742;1.236;2024-02-26T01:12:31;1.20;;;1.20;;
44276;SDS011;29973;43.742;1.236;2024-02-26T01:15:05;1.30;;;1.30;;
44276;SDS011;29973;43.742;1.236;2024-02-26T01:17:31;1.73;;;1.73;;
44276;SDS011;29973;43.742;1.236;2024-02-26T01:19:56;1.40;;;1.40;;
44276;SDS011;29973;43.742;1.236;2024-02-26T01:22:22;1.10;;;1.10;;
44276;SDS011;29973;43.742;1.236;2024-02-26T01:24:48;1.10;;;1.10;;
44276;SDS011;29973;43.742;1.236;2024-02-26T01:27:13;1.00;;;1.00;;
44276;SDS011;29973;43.742;1.236;2024-02-26T01:29:40;0.80;;;0.80;;
44276;SDS011;29973;43.742;1.236;2024-02-26T01:32:07;0.82;;;0.82;;
44276;SDS011;29973;43.742;1.236;2024-02-26T01:34:32;0.90;;;0.90;;
44276;SDS011;29973;43.742;1.236;2024-02-26T01:36:58;1.00;;;1.00;;
44276;SDS011;29973;43.742;1.236;2024-02-26T01:39:24;1.00;;;1.00;;
44276;SDS011;29973;43.742;1.236;2024-02-26T01:41:50;0.90;;;0.90;;
44276;SDS011;29973;43.742;1.236;2024-02-26T01:44:22;1.02;;;1.02;;
44276;SDS011;29973;43.742;1.236;2024-02-26T01:46:48;1.30;;;1.30;;
44276;SDS011;29973;43.742;1.236;2024-02-26T01:49:14;1.30;;;1.30;;
44276;SDS011;29973;43.742;1.236;2024-02-26T01:51:41;1.45;;;1.45;;
44276;SDS011;29973;43.742;1.236;2024-02-26T01:54:08;1.77;;;1.77;;
44276;SDS011;29973;43.742;1.236;2024-02-26T01:56:35;1.50;;;1.50;;
44276;SDS011;29973;43.742;1.236;2024-02-26T01:59:02;1.42;;;1.42;;
44276;SDS011;29973;43.742;1.236;2024-02-26T02:01:30;1.08;;;1.08;;
44276;SDS011;29973;43.742;1.236;2024-02-26T02:03:58;0.95;;;0.95;;
44276;SDS011;29973;43.742;1.236;2024-02-26T02:06:25;0.90;;;0.90;;
44276;SDS011;29973;43.742;1.236;2024-02-26T02:08:52;0.90;;;0.90;;
44276;SDS011;29973;43.742;1.236;2024-02-26T02:11:18;1.10;;;1.10;;
44276;SDS011;29973;43.742;1.236;2024-02-26T02:13:46;1.30;;;1.30;;
44276;SDS011;29973;43.742;1.236;2024-02-26T02:16:12;1.40;;;1.40;;
44276;SDS011;29973;43.742;1.236;2024-02-26T02:18:38;1.60;;;1.60;;
44276;SDS011;29973;43.742;1.236;2024-02-26T02:21:03;1.92;;;1.85;;
44276;SDS011;29973;43.742;1.236;2024-02-26T02:23:29;2.35;;;2.25;;
44276;SDS011;29973;43.742;1.236;2024-02-26T02:25:55;2.97;;;2.88;;
44276;SDS011;29973;43.742;1.236;2024-02-26T02:28:23;2.70;;;2.60;;
44276;SDS011;29973;43.742;1.236;2024-02-26T02:30:51;3.00;;;2.90;;
44276;SDS011;29973;43.742;1.236;2024-02-26T02:33:17;2.88;;;2.78;;
44276;SDS011;29973;43.742;1.236;2024-02-26T02:35:43;2.63;;;2.53;;
44276;SDS011;29973;43.742;1.236;2024-02-26T02:38:08;2.58;;;2.47;;
44276;SDS011;29973;43.742;1.236;2024-02-26T02:40:34;3.90;;;3.75;;
44276;SDS011;29973;43.742;1.236;2024-02-26T02:43:00;2.65;;;2.55;;
44276;SDS011;29973;43.742;1.236;2024-02-26T02:45:27;2.70;;;2.60;;
44276;SDS011;29973;43.742;1.236;2024-02-26T02:47:53;2.83;;;2.72;;
44276;SDS011;29973;43.742;1.236;2024-02-26T02:50:19;2.67;;;2.58;;
44276;SDS011;29973;43.742;1.236;2024-02-26T02:52:45;1.80;;;1.80;;
44276;SDS011;29973;43.742;1.236;2024-02-26T02:55:10;1.30;;;1.30;;
44276;SDS011;29973;43.742;1.236;2024-02-26T02:57:36;1.10;;;1.10;;
44276;SDS011;29973;43.742;1.236;2024-02-26T03:00:06;1.00;;;1.00;;
44276;SDS011;29973;43.742;1.236;2024-02-26T03:02:33;1.10;;;1.10;;
44276;SDS011;29973;43.742;1.236;2024-02-26T03:05:01;1.20;;;1.20;;
44276;SDS011;29973;43.742;1.236;2024-02-26T03:07:27;1.70;;;1.70;;
44276;SDS011;29973;43.742;1.236;2024-02-26T03:09:53;2.15;;;2.05;;
44276;SDS011;29973;43.742;1.236;2024-02-26T03:12:18;2.80;;;2.70;;
44276;SDS011;29973;43.742;1.236;2024-02-26T03:14:44;3.05;;;2.95;;
44276;SDS011;29973;43.742;1.236;2024-02-26T03:17:10;2.97;;;2.88;;
44276;SDS011;29973;43.742;1.236;2024-02-26T03:19:36;6.10;;;5.70;;
44276;SDS011;29973;43.742;1.236;2024-02-26T03:22:01;2.17;;;2.08;;
44276;SDS011;29973;43.742;1.236;2024-02-26T03:24:27;1.80;;;1.80;;
44276;SDS011;29973;43.742;1.236;2024-02-26T03:26:53;1.85;;;1.83;;
44276;SDS011;29973;43.742;1.236;2024-02-26T03:29:18;1.80;;;1.80;;
44276;SDS011;29973;43.742;1.236;2024-02-26T03:31:44;6.97;;;6.22;;
44276;SDS011;29973;43.742;1.236;2024-02-26T03:34:10;2.25;;;2.15;;
44276;SDS011;29973;43.742;1.236;2024-02-26T03:36:37;3.20;;;3.10;;
44276;SDS011;29973;43.742;1.236;2024-02-26T03:39:03;3.35;;;3.25;;
44276;SDS011;29973;43.742;1.236;2024-02-26T03:41:32;2.70;;;2.60;;
44276;SDS011;29973;43.742;1.236;2024-02-26T03:43:59;1.80;;;1.80;;
44276;SDS011;29973;43.742;1.236;2024-02-26T03:46:24;1.50;;;1.50;;
44276;SDS011;29973;43.742;1.236;2024-02-26T03:48:50;1.10;;;1.10;;
44276;SDS011;29973;43.742;1.236;2024-02-26T03:51:15;1.00;;;1.00;;
44276;SDS011;29973;43.742;1.236;2024-02-26T03:53:41;0.93;;;0.93;;
44276;SDS011;29973;43.742;1.236;2024-02-26T03:56:07;1.00;;;1.00;;
44276;SDS011;29973;43.742;1.236;2024-02-26T03:58:33;1.45;;;1.45;;
44276;SDS011;29973;43.742;1.236;2024-02-26T04:00:59;1.85;;;1.83;;
44276;SDS011;29973;43.742;1.236;2024-02-26T04:03:25;4.05;;;3.85;;
44276;SDS011;29973;43.742;1.236;2024-02-26T04:05:51;5.20;;;5.00;;
44276;SDS011;29973;43.742;1.236;2024-02-26T04:08:16;6.57;;;6.28;;
44276;SDS011;29973;43.742;1.236;2024-02-26T04:10:42;7.07;;;6.78;;
44276;SDS011;29973;43.742;1.236;2024-02-26T04:13:09;3.45;;;3.35;;
44276;SDS011;29973;43.742;1.236;2024-02-26T04:15:34;1.00;;;1.00;;
44276;SDS011;29973;43.742;1.236;2024-02-26T04:18:00;0.70;;;0.70;;
44276;SDS011;29973;43.742;1.236;2024-02-26T04:20:26;0.40;;;0.40;;
44276;SDS011;29973;43.742;1.236;2024-02-26T04:22:51;0.40;;;0.40;;
44276;SDS011;29973;43.742;1.236;2024-02-26T04:25:24;0.50;;;0.50;;
44276;SDS011;29973;43.742;1.236;2024-02-26T04:27:53;1.20;;;1.20;;
44276;SDS011;29973;43.742;1.236;2024-02-26T04:30:18;2.40;;;2.30;;
44276;SDS011;29973;43.742;1.236;2024-02-26T04:32:44;2.90;;;2.80;;
44276;SDS011;29973;43.742;1.236;2024-02-26T04:35:10;3.17;;;3.08;;
44276;SDS011;29973;43.742;1.236;2024-02-26T04:37:36;1.30;;;1.30;;
44276;SDS011;29973;43.742;1.236;2024-02-26T04:40:03;0.90;;;0.90;;
44276;SDS011;29973;43.742;1.236;2024-02-26T04:42:29;0.52;;;0.52;;
44276;SDS011;29973;43.742;1.236;2024-02-26T04:44:55;0.80;;;0.75;;
44276;SDS011;29973;43.742;1.236;2024-02-26T04:47:21;11.98;;;4.63;;
44276;SDS011;29973;43.742;1.236;2024-02-26T04:49:47;7.05;;;1.65;;
44276;SDS011;29973;43.742;1.236;2024-02-26T04:52:14;3.65;;;1.42;;
44276;SDS011;29973;43.742;1.236;2024-02-26T04:54:40;6.25;;;2.08;;
44276;SDS011;29973;43.742;1.236;2024-02-26T04:57:05;6.53;;;1.95;;
44276;SDS011;29973;43.742;1.236;2024-02-26T04:59:31;10.32;;;2.05;;
44276;SDS011;29973;43.742;1.236;2024-02-26T05:01:56;8.38;;;1.88;;
44276;SDS011;29973;43.742;1.236;2024-02-26T05:04:22;6.72;;;1.67;;
44276;SDS011;29973;43.742;1.236;2024-02-26T05:06:48;8.85;;;1.58;;
44276;SDS011;29973;43.742;1.236;2024-02-26T05:09:13;3.40;;;1.08;;
44276;SDS011;29973;43.742;1.236;2024-02-26T05:11:39;3.40;;;1.52;;
44276;SDS011;29973;43.742;1.236;2024-02-26T05:14:05;8.07;;;1.40;;
44276;SDS011;29973;43.742;1.236;2024-02-26T05:16:31;6.57;;;1.40;;
44276;SDS011;29973;43.742;1.236;2024-02-26T05:18:57;10.38;;;1.50;;
44276;SDS011;29973;43.742;1.236;2024-02-26T05:21:23;5.72;;;1.95;;
44276;SDS011;29973;43.742;1.236;2024-02-26T05:23:48;8.20;;;2.28;;
44276;SDS011;29973;43.742;1.236;2024-02-26T05:26:20;7.72;;;1.77;;
44276;SDS011;29973;43.742;1.236;2024-02-26T05:28:47;3.67;;;1.52;;
44276;SDS011;29973;43.742;1.236;2024-02-26T05:31:13;4.60;;;1.27;;
44276;SDS011;29973;43.742;1.236;2024-02-26T05:33:39;9.02;;;1.80;;
44276;SDS011;29973;43.742;1.236;2024-02-26T05:36:05;6.50;;;1.77;;
44276;SDS011;29973;43.742;1.236;2024-02-26T05:38:31;8.98;;;1.75;;
44276;SDS011;29973;43.742;1.236;2024-02-26T05:41:00;7.60;;;1.85;;
44276;SDS011;29973;43.742;1.236;2024-02-26T05:43:26;2.58;;;1.45;;
44276;SDS011;29973;43.742;1.236;2024-02-26T05:45:52;6.93;;;1.95;;
44276;SDS011;29973;43.742;1.236;2024-02-26T05:48:17;6.97;;;1.23;;
44276;SDS011;29973;43.742;1.236;2024-02-26T05:50:44;4.10;;;1.60;;
44276;SDS011;29973;43.742;1.236;2024-02-26T05:53:10;7.82;;;2.40;;
44276;SDS011;29973;43.742;1.236;2024-02-26T05:55:36;7.50;;;2.47;;
44276;SDS011;29973;43.742;1.236;2024-02-26T05:58:02;4.68;;;2.25;;
44276;SDS011;29973;43.742;1.236;2024-02-26T06:00:28;3.95;;;1.95;;
44276;SDS011;29973;43.742;1.236;2024-02-26T06:02:53;10.75;;;3.70;;
44276;SDS011;29973;43.742;1.236;2024-02-26T06:05:19;6.75;;;1.80;;
44276;SDS011;29973;43.742;1.236;2024-02-26T06:07:45;9.93;;;1.77;;
44276;SDS011;29973;43.742;1.236;2024-02-26T06:10:10;9.38;;;2.22;;
44276;SDS011;29973;43.742;1.236;2024-02-26T06:12:41;5.57;;;1.67;;
44276;SDS011;29973;43.742;1.236;2024-02-26T06:15:08;7.10;;;1.85;;
44276;SDS011;29973;43.742;1.236;2024-02-26T06:17:34;3.53;;;1.15;;
44276;SDS011;29973;43.742;1.236;2024-02-26T06:20:00;7.25;;;1.90;;
44276;SDS011;29973;43.742;1.236;2024-02-26T06:22:26;7.95;;;2.15;;
44276;SDS011;29973;43.742;1.236;2024-02-26T06:24:52;6.28;;;1.30;;
44276;SDS011;29973;43.742;1.236;2024-02-26T06:27:17;9.20;;;1.50;;
44276;SDS011;29973;43.742;1.236;2024-02-26T06:29:43;5.43;;;1.73;;
44276;SDS011;29973;43.742;1.236;2024-02-26T06:32:09;5.85;;;2.03;;
44276;SDS011;29973;43.742;1.236;2024-02-26T06:34:35;8.85;;;2.30;;
44276;SDS011;29973;43.742;1.236;2024-02-26T06:37:00;11.70;;;1.80;;
44276;SDS011;29973;43.742;1.236;2024-02-26T06:39:26;6.78;;;1.60;;
44276;SDS011;29973;43.742;1.236;2024-02-26T06:41:52;9.93;;;2.03;;
44276;SDS011;29973;43.742;1.236;2024-02-26T06:44:25;4.85;;;1.75;;
44276;SDS011;29973;43.742;1.236;2024-02-26T06:46:51;9.43;;;1.85;;
44276;SDS011;29973;43.742;1.236;2024-02-26T06:49:16;4.45;;;1.63;;
44276;SDS011;29973;43.742;1.236;2024-02-26T06:51:43;5.65;;;1.75;;
44276;SDS011;29973;43.742;1.236;2024-02-26T06:54:09;11.25;;;2.28;;
44276;SDS011;29973;43.742;1.236;2024-02-26T06:56:34;7.22;;;1.50;;
44276;SDS011;29973;43.742;1.236;2024-02-26T06:59:00;3.10;;;1.35;;
44276;SDS011;29973;43.742;1.236;2024-02-26T07:01:26;7.30;;;1.80;;
44276;SDS011;29973;43.742;1.236;2024-02-26T07:03:51;10.18;;;1.73;;
44276;SDS011;29973;43.742;1.236;2024-02-26T07:06:17;4.28;;;1.42;;
44276;SDS011;29973;43.742;1.236;2024-02-26T07:08:43;5.18;;;2.20;;
44276;SDS011;29973;43.742;1.236;2024-02-26T07:11:08;6.50;;;2.10;;
44276;SDS011;29973;43.742;1.236;2024-02-26T07:13:35;5.45;;;1.75;;
44276;SDS011;29973;43.742;1.236;2024-02-26T07:16:01;6.90;;;2.45;;
44276;SDS011;29973;43.742;1.236;2024-02-26T07:18:26;5.18;;;1.55;;
44276;SDS011;29973;43.742;1.236;2024-02-26T07:20:52;3.30;;;1.63;;
44276;SDS011;29973;43.742;1.236;2024-02-26T07:23:18;6.10;;;1.80;;
44276;SDS011;29973;43.742;1.236;2024-02-26T07:25:44;8.32;;;1.70;;
44276;SDS011;29973;43.742;1.236;2024-02-26T07:28:11;5.20;;;1.90;;
44276;SDS011;29973;43.742;1.236;2024-02-26T07:30:37;7.63;;;2.33;;
44276;SDS011;29973;43.742;1.236;2024-02-26T07:33:02;5.93;;;1.85;;
44276;SDS011;29973;43.742;1.236;2024-02-26T07:35:28;6.88;;;1.60;;
44276;SDS011;29973;43.742;1.236;2024-02-26T07:37:54;6.05;;;2.28;;
44276;SDS011;29973;43.742;1.236;2024-02-26T07:40:19;11.02;;;2.00;;
44276;SDS011;29973;43.742;1.236;2024-02-26T07:42:45;5.93;;;1.75;;
44276;SDS011;29973;43.742;1.236;2024-02-26T07:45:11;4.22;;;2.00;;
44276;SDS011;29973;43.742;1.236;2024-02-26T07:47:36;12.50;;;2.50;;
44276;SDS011;29973;43.742;1.236;2024-02-26T07:50:06;5.68;;;1.73;;
44276;SDS011;29973;43.742;1.236;2024-02-26T07:52:32;4.95;;;2.13;;
44276;SDS011;29973;43.742;1.236;2024-02-26T07:54:58;9.32;;;1.98;;
44276;SDS011;29973;43.742;1.236;2024-02-26T07:57:24;8.30;;;1.95;;
44276;SDS011;29973;43.742;1.236;2024-02-26T07:59:49;8.18;;;2.17;;
44276;SDS011;29973;43.742;1.236;2024-02-26T08:02:15;7.75;;;1.38;;
44276;SDS011;29973;43.742;1.236;2024-02-26T08:04:41;4.43;;;1.42;;
44276;SDS011;29973;43.742;1.236;2024-02-26T08:07:07;4.28;;;1.42;;
44276;SDS011;29973;43.742;1.236;2024-02-26T08:09:33;4.75;;;1.85;;
44276;SDS011;29973;43.742;1.236;2024-02-26T08:11:58;10.90;;;2.17;;
44276;SDS011;29973;43.742;1.236;2024-02-26T08:14:24;14.60;;;1.83;;
44276;SDS011;29973;43.742;1.236;2024-02-26T08:16:50;5.30;;;1.65;;
44276;SDS011;29973;43.742;1.236;2024-02-26T08:19:15;6.00;;;1.98;;
44276;SDS011;29973;43.742;1.236;2024-02-26T08:21:42;8.15;;;1.65;;
44276;SDS011;29973;43.742;1.236;2024-02-26T08:24:08;9.57;;;1.73;;
44276;SDS011;29973;43.742;1.236;2024-02-26T08:26:34;7.57;;;1.48;;
44276;SDS011;29973;43.742;1.236;2024-02-26T08:29:00;4.57;;;1.52;;
44276;SDS011;29973;43.742;1.236;2024-02-26T08:31:26;5.82;;;1.83;;
44276;SDS011;29973;43.742;1.236;2024-02-26T08:33:52;9.30;;;2.67;;
44276;SDS011;29973;43.742;1.236;2024-02-26T08:36:18;7.22;;;2.72;;
44276;SDS011;29973;43.742;1.236;2024-02-26T08:38:44;5.68;;;1.48;;
44276;SDS011;29973;43.742;1.236;2024-02-26T08:41:09;7.05;;;1.40;;
44276;SDS011;29973;43.742;1.236;2024-02-26T08:43:35;8.23;;;1.83;;
44276;SDS011;29973;43.742;1.236;2024-02-26T08:46:01;4.00;;;1.67;;
44276;SDS011;29973;43.742;1.236;2024-02-26T08:48:26;10.07;;;1.90;;
44276;SDS011;29973;43.742;1.236;2024-02-26T08:50:52;5.03;;;1.23;;
44276;SDS011;29973;43.742;1.236;2024-02-26T08:53:18;15.82;;;2.30;;
44276;SDS011;29973;43.742;1.236;2024-02-26T08:55:43;11.30;;;2.03;;
44276;SDS011;29973;43.742;1.236;2024-02-26T08:58:09;9.05;;;1.88;;
44276;SDS011;29973;43.742;1.236;2024-02-26T09:00:34;10.50;;;2.63;;
44276;SDS011;29973;43.742;1.236;2024-02-26T09:03:00;9.38;;;2.53;;
44276;SDS011;29973;43.742;1.236;2024-02-26T09:05:26;6.88;;;2.03;;
44276;SDS011;29973;43.742;1.236;2024-02-26T09:07:51;6.47;;;2.08;;
44276;SDS011;29973;43.742;1.236;2024-02-26T09:10:17;9.32;;;2.13;;
44276;SDS011;29973;43.742;1.236;2024-02-26T09:12:43;7.88;;;1.83;;
44276;SDS011;29973;43.742;1.236;2024-02-26T09:15:09;9.77;;;1.65;;
44276;SDS011;29973;43.742;1.236;2024-02-26T09:17:34;5.95;;;2.00;;
44276;SDS011;29973;43.742;1.236;2024-02-26T09:20:01;5.07;;;1.83;;
44276;SDS011;29973;43.742;1.236;2024-02-26T09:22:27;9.00;;;2.83;;
44276;SDS011;29973;43.742;1.236;2024-02-26T09:24:53;7.90;;;1.88;;
44276;SDS011;29973;43.742;1.236;2024-02-26T09:27:19;11.68;;;1.92;;
44276;SDS011;29973;43.742;1.236;2024-02-26T09:29:44;6.03;;;1.77;;
44276;SDS011;29973;43.742;1.236;2024-02-26T09:32:11;8.32;;;2.00;;
44276;SDS011;29973;43.742;1.236;2024-02-26T09:34:37;4.95;;;1.00;;
44276;SDS011;29973;43.742;1.236;2024-02-26T09:37:05;7.60;;;1.73;;
44276;SDS011;29973;43.742;1.236;2024-02-26T09:39:31;7.22;;;1.73;;
44276;SDS011;29973;43.742;1.236;2024-02-26T09:41:56;4.45;;;1.45;;
44276;SDS011;29973;43.742;1.236;2024-02-26T09:44:24;11.88;;;2.20;;
44276;SDS011;29973;43.742;1.236;2024-02-26T09:46:52;10.02;;;1.75;;
44276;SDS011;29973;43.742;1.236;2024-02-26T09:49:19;6.88;;;1.77;;
44276;SDS011;29973;43.742;1.236;2024-02-26T09:51:47;4.65;;;1.23;;
44276;SDS011;29973;43.742;1.236;2024-02-26T09:54:15;10.02;;;2.20;;
44276;SDS011;29973;43.742;1.236;2024-02-26T09:56:42;7.38;;;1.85;;
44276;SDS011;29973;43.742;1.236;2024-02-26T09:59:10;10.98;;;2.58;;
44276;SDS011;29973;43.742;1.236;2024-02-26T10:01:42;6.07;;;1.35;;
44276;SDS011;29973;43.742;1.236;2024-02-26T10:04:09;9.45;;;2.03;;
44276;SDS011;29973;43.742;1.236;2024-02-26T10:06:36;3.80;;;1.52;;
44276;SDS011;29973;43.742;1.236;2024-02-26T10:09:10;12.60;;;1.80;;
44276;SDS011;29973;43.742;1.236;2024-02-26T10:11:36;11.07;;;1.58;;
44276;SDS011;29973;43.742;1.236;2024-02-26T10:14:03;8.43;;;1.88;;
44276;SDS011;29973;43.742;1.236;2024-02-26T10:16:29;6.13;;;1.85;;
44276;SDS011;29973;43.742;1.236;2024-02-26T10:18:55;7.25;;;1.58;;
44276;SDS011;29973;43.742;1.236;2024-02-26T10:21:21;2.03;;;1.05;;
44276;SDS011;29973;43.742;1.236;2024-02-26T10:23:48;7.93;;;1.15;;
44276;SDS011;29973;43.742;1.236;2024-02-26T10:26:14;5.35;;;1.13;;
44276;SDS011;29973;43.742;1.236;2024-02-26T10:28:44;5.93;;;2.13;;
44276;SDS011;29973;43.742;1.236;2024-02-26T10:31:10;7.47;;;1.63;;
44276;SDS011;29973;43.742;1.236;2024-02-26T10:33:37;7.55;;;1.55;;
44276;SDS011;29973;43.742;1.236;2024-02-26T10:36:06;7.00;;;1.13;;
44276;SDS011;29973;43.742;1.236;2024-02-26T10:38:36;4.13;;;1.60;;
44276;SDS011;29973;43.742;1.236;2024-02-26T10:41:02;8.43;;;1.80;;
44276;SDS011;29973;43.742;1.236;2024-02-26T10:43:29;6.68;;;1.63;;
44276;SDS011;29973;43.742;1.236;2024-02-26T10:45:55;4.72;;;1.05;;
44276;SDS011;29973;43.742;1.236;2024-02-26T10:48:21;6.60;;;1.35;;
44276;SDS011;29973;43.742;1.236;2024-02-26T10:50:47;5.30;;;1.60;;
44276;SDS011;29973;43.742;1.236;2024-02-26T10:53:17;8.95;;;1.30;;
44276;SDS011;29973;43.742;1.236;2024-02-26T10:55:47;5.80;;;1.70;;
44276;SDS011;29973;43.742;1.236;2024-02-26T10:58:17;3.88;;;0.98;;
44276;SDS011;29973;43.742;1.236;2024-02-26T11:00:44;3.35;;;0.80;;
44276;SDS011;29973;43.742;1.236;2024-02-26T11:03:12;4.53;;;1.30;;
44276;SDS011;29973;43.742;1.236;2024-02-26T11:05:41;5.88;;;1.13;;
44276;SDS011;29973;43.742;1.236;2024-02-26T11:08:09;5.78;;;1.33;;
44276;SDS011;29973;43.742;1.236;2024-02-26T11:10:36;7.28;;;1.20;;
44276;SDS011;29973;43.742;1.236;2024-02-26T11:13:03;5.57;;;1.33;;
44276;SDS011;29973;43.742;1.236;2024-02-26T11:15:31;5.70;;;1.00;;
44276;SDS011;29973;43.742;1.236;2024-02-26T11:17:58;4.65;;;1.10;;
44276;SDS011;29973;43.742;1.236;2024-02-26T11:20:27;3.40;;;1.20;;
44276;SDS011;29973;43.742;1.236;2024-02-26T11:22:54;6.32;;;0.90;;
44276;SDS011;29973;43.742;1.236;2024-02-26T11:25:20;4.00;;;1.40;;
44276;SDS011;29973;43.742;1.236;2024-02-26T11:27:48;2.50;;;1.08;;
44276;SDS011;29973;43.742;1.236;2024-02-26T11:30:16;2.60;;;1.08;;
44276;SDS011;29973;43.742;1.236;2024-02-26T11:32:46;4.82;;;1.38;;
44276;SDS011;29973;43.742;1.236;2024-02-26T11:35:12;5.35;;;1.02;;
44276;SDS011;29973;43.742;1.236;2024-02-26T11:37:40;3.45;;;1.60;;
44276;SDS011;29973;43.742;1.236;2024-02-26T11:40:15;3.00;;;1.20;;
44276;SDS011;29973;43.742;1.236;2024-02-26T11:42:44;5.10;;;1.27;;
44276;SDS011;29973;43.742;1.236;2024-02-26T11:48:04;3.05;;;1.00;;
44276;SDS011;29973;43.742;1.236;2024-02-26T11:50:40;2.65;;;1.00;;
44276;SDS011;29973;43.742;1.236;2024-02-26T11:53:32;0.63;;;0.60;;
44276;SDS011;29973;43.742;1.236;2024-02-26T11:58:58;2.15;;;0.77;;
44276;SDS011;29973;43.742;1.236;2024-02-26T12:04:13;1.50;;;0.77;;
44276;SDS011;29973;43.742;1.236;2024-02-26T12:06:41;2.22;;;0.70;;
44276;SDS011;29973;43.742;1.236;2024-02-26T12:09:11;2.60;;;0.70;;
44276;SDS011;29973;43.742;1.236;2024-02-26T12:11:39;3.97;;;0.80;;
44276;SDS011;29973;43.742;1.236;2024-02-26T12:14:05;2.45;;;0.80;;
44276;SDS011;29973;43.742;1.236;2024-02-26T12:16:39;5.30;;;1.08;;
44276;SDS011;29973;43.742;1.236;2024-02-26T12:19:08;1.63;;;1.05;;
44276;SDS011;29973;43.742;1.236;2024-02-26T12:21:35;3.08;;;1.00;;
44276;SDS011;29973;43.742;1.236;2024-02-26T12:24:11;3.60;;;0.77;;
44276;SDS011;29973;43.742;1.236;2024-02-26T12:26:39;4.20;;;0.90;;
44276;SDS011;29973;43.742;1.236;2024-02-26T12:29:05;2.15;;;1.05;;
44276;SDS011;29973;43.742;1.236;2024-02-26T12:31:34;2.65;;;0.93;;
44276;SDS011;29973;43.742;1.236;2024-02-26T12:34:04;2.15;;;0.77;;
44276;SDS011;29973;43.742;1.236;2024-02-26T12:36:30;6.82;;;1.17;;
44276;SDS011;29973;43.742;1.236;2024-02-26T12:38:56;1.63;;;0.95;;
44276;SDS011;29973;43.742;1.236;2024-02-26T12:41:22;2.35;;;0.70;;
44276;SDS011;29973;43.742;1.236;2024-02-26T12:43:48;5.90;;;0.93;;
44276;SDS011;29973;43.742;1.236;2024-02-26T12:46:13;2.05;;;0.77;;
44276;SDS011;29973;43.742;1.236;2024-02-26T12:48:43;2.60;;;1.15;;
44276;SDS011;29973;43.742;1.236;2024-02-26T12:51:10;3.47;;;0.80;;
44276;SDS011;29973;43.742;1.236;2024-02-26T12:53:40;2.53;;;0.90;;
44276;SDS011;29973;43.742;1.236;2024-02-26T12:56:09;2.78;;;0.93;;
44276;SDS011;29973;43.742;1.236;2024-02-26T12:58:37;1.75;;;0.50;;
44276;SDS011;29973;43.742;1.236;2024-02-26T13:01:05;2.28;;;1.00;;
44276;SDS011;29973;43.742;1.236;2024-02-26T13:03:34;1.42;;;1.00;;
44276;SDS011;29973;43.742;1.236;2024-02-26T13:06:02;4.97;;;0.88;;
44276;SDS011;29973;43.742;1.236;2024-02-26T13:08:28;2.35;;;0.65;;
44276;SDS011;29973;43.742;1.236;2024-02-26T13:10:54;1.75;;;1.00;;
44276;SDS011;29973;43.742;1.236;2024-02-26T13:13:19;4.72;;;1.10;;
44276;SDS011;29973;43.742;1.236;2024-02-26T13:15:45;4.22;;;1.02;;
44276;SDS011;29973;43.742;1.236;2024-02-26T13:18:11;1.30;;;0.93;;
44276;SDS011;29973;43.742;1.236;2024-02-26T13:20:38;0.85;;;0.50;;
44276;SDS011;29973;43.742;1.236;2024-02-26T13:23:08;2.03;;;1.08;;
44276;SDS011;29973;43.742;1.236;2024-02-26T13:25:36;2.15;;;1.27;;
44276;SDS011;29973;43.742;1.236;2024-02-26T13:28:25;1.75;;;0.85;;
44276;SDS011;29973;43.742;1.236;2024-02-26T13:30:55;0.98;;;0.70;;
44276;SDS011;29973;43.742;1.236;2024-02-26T13:33:22;0.60;;;0.57;;
44276;SDS011;29973;43.742;1.236;2024-02-26T13:35:49;1.70;;;0.98;;
44276;SDS011;29973;43.742;1.236;2024-02-26T13:38:15;2.40;;;1.00;;
44276;SDS011;29973;43.742;1.236;2024-02-26T13:40:42;5.00;;;1.10;;
44276;SDS011;29973;43.742;1.236;2024-02-26T13:43:07;1.08;;;0.88;;
44276;SDS011;29973;43.742;1.236;2024-02-26T13:45:37;2.92;;;1.45;;
44276;SDS011;29973;43.742;1.236;2024-02-26T13:48:04;2.72;;;1.30;;
44276;SDS011;29973;43.742;1.236;2024-02-26T13:50:37;1.92;;;0.93;;
44276;SDS011;29973;43.742;1.236;2024-02-26T13:53:03;0.93;;;0.90;;
44276;SDS011;29973;43.742;1.236;2024-02-26T13:55:30;2.80;;;1.20;;
44276;SDS011;29973;43.742;1.236;2024-02-26T13:57:57;1.08;;;0.80;;
44276;SDS011;29973;43.742;1.236;2024-02-26T14:00:23;1.70;;;1.10;;
44276;SDS011;29973;43.742;1.236;2024-02-26T14:02:49;2.88;;;0.82;;
44276;SDS011;29973;43.742;1.236;2024-02-26T14:05:15;2.65;;;0.95;;
44276;SDS011;29973;43.742;1.236;2024-02-26T14:07:41;6.38;;;0.90;;
44276;SDS011;29973;43.742;1.236;2024-02-26T14:10:08;3.25;;;1.13;;
44276;SDS011;29973;43.742;1.236;2024-02-26T14:12:36;2.03;;;1.33;;
44276;SDS011;29973;43.742;1.236;2024-02-26T14:15:03;0.95;;;0.80;;
44276;SDS011;29973;43.742;1.236;2024-02-26T14:17:30;2.00;;;0.88;;
44276;SDS011;29973;43.742;1.236;2024-02-26T14:19:56;2.65;;;0.88;;
44276;SDS011;29973;43.742;1.236;2024-02-26T14:22:21;1.65;;;1.10;;
44276;SDS011;29973;43.742;1.236;2024-02-26T14:24:47;0.70;;;0.70;;
44276;SDS011;29973;43.742;1.236;2024-02-26T14:27:13;1.45;;;0.80;;
44276;SDS011;29973;43.742;1.236;2024-02-26T14:29:45;0.98;;;0.70;;
44276;SDS011;29973;43.742;1.236;2024-02-26T14:32:11;1.85;;;0.77;;
44276;SDS011;29973;43.742;1.236;2024-02-26T14:34:37;0.95;;;0.88;;
44276;SDS011;29973;43.742;1.236;2024-02-26T14:37:03;1.00;;;0.90;;
44276;SDS011;29973;43.742;1.236;2024-02-26T14:39:29;1.38;;;0.80;;
44276;SDS011;29973;43.742;1.236;2024-02-26T14:41:57;1.05;;;0.63;;
44276;SDS011;29973;43.742;1.236;2024-02-26T14:44:22;1.02;;;0.80;;
44276;SDS011;29973;43.742;1.236;2024-02-26T14:46:49;1.23;;;0.98;;
44276;SDS011;29973;43.742;1.236;2024-02-26T14:49:15;0.68;;;0.68;;
44276;SDS011;29973;43.742;1.236;2024-02-26T14:51:42;1.40;;;0.77;;
44276;SDS011;29973;43.742;1.236;2024-02-26T14:54:10;0.75;;;0.70;;